Time;durP1;ratioP1;P1;durP2;ratioP2;P2;SDS_P1;SDS_P2;PMS_P1;PMS_P2;Temp;Humidity;BMP_temperature;BMP_pressure;BME280_temperature;BME280_humidity;BME280_pressure;Samples;Min_cycle;Max_cycle;Signal;HPM_P1;HPM_P2
2023/09/27 00:00:45;;;;;;;3.50;1.57;;;;;;;19.56;100.00;101999.31;2071253;28;20189;-62
2023/09/27 00:01:46;;;;;;;2.87;1.60;;;;;;;19.45;100.00;101992.53;2071139;28;20189;-62
2023/09/27 00:02:46;;;;;;;2.73;1.80;;;;;;;19.11;100.00;101950.44;2070923;28;20208;-62
2023/09/27 00:03:47;;;;;;;4.70;1.60;;;;;;;19.36;100.00;101998.09;2070659;28;20244;-62
2023/09/27 00:04:48;;;;;;;2.30;1.53;;;;;;;19.23;100.00;101998.16;2071302;28;20190;-62
2023/09/27 00:05:48;;;;;;;4.63;1.50;;;;;;;19.21;100.00;101999.84;2070551;28;20196;-62
2023/09/27 00:06:50;;;;;;;2.80;1.40;;;;;;;19.18;100.00;101995.16;2069858;28;20250;-62
2023/09/27 00:07:51;;;;;;;2.37;1.60;;;;;;;19.14;100.00;102000.88;2061924;28;20228;-62
2023/09/27 00:08:51;;;;;;;2.90;1.70;;;;;;;19.11;100.00;101989.78;2070662;28;20432;-62
2023/09/27 00:09:52;;;;;;;2.17;1.57;;;;;;;19.06;100.00;101991.16;2070949;28;20930;-62
2023/09/27 00:10:53;;;;;;;3.47;1.77;;;;;;;19.02;100.00;101993.31;2070576;28;20907;-62
2023/09/27 00:11:54;;;;;;;5.03;1.80;;;;;;;18.98;100.00;101980.66;2070548;28;20575;-62
2023/09/27 00:12:54;;;;;;;7.73;1.80;;;;;;;18.96;100.00;101978.31;2072650;28;20527;-62
2023/09/27 00:13:54;;;;;;;2.83;1.50;;;;;;;18.94;100.00;101977.97;2071191;28;20197;-63
2023/09/27 00:14:57;;;;;;;2.53;1.50;;;;;;;18.87;100.00;101974.63;2070516;28;20174;-62
2023/09/27 00:15:57;;;;;;;3.63;1.53;;;;;;;18.69;100.00;101968.88;2071537;28;20189;-62
2023/09/27 00:16:58;;;;;;;2.87;1.67;;;;;;;18.49;100.00;101923.47;2069515;28;20519;-62
2023/09/27 00:17:58;;;;;;;3.20;1.70;;;;;;;18.12;100.00;101860.59;2072020;28;20186;-62
2023/09/27 00:18:59;;;;;;;4.17;1.60;;;;;;;18.80;100.00;101974.88;2072083;28;20651;-62
2023/09/27 00:19:59;;;;;;;4.63;1.70;;;;;;;18.67;100.00;101962.94;2067197;28;20671;-62
2023/09/27 00:21:00;;;;;;;2.93;1.70;;;;;;;18.68;100.00;101976.50;2066867;28;20186;-62
2023/09/27 00:22:00;;;;;;;3.73;1.40;;;;;;;18.67;100.00;101968.56;2070822;28;20204;-63
2023/09/27 00:23:01;;;;;;;2.37;1.50;;;;;;;18.65;100.00;101977.44;2071035;28;20655;-62
2023/09/27 00:24:02;;;;;;;3.40;1.67;;;;;;;18.63;100.00;101968.66;2069790;28;20574;-62
2023/09/27 00:25:04;;;;;;;1.93;1.17;;;;;;;18.63;100.00;101967.91;2071208;28;20668;-62
2023/09/27 00:26:05;;;;;;;1.97;1.37;;;;;;;18.58;100.00;101965.66;2071037;28;20208;-62
2023/09/27 00:27:05;;;;;;;2.20;1.30;;;;;;;18.60;100.00;101980.03;2070365;28;20532;-63
2023/09/27 00:28:06;;;;;;;2.47;1.63;;;;;;;18.43;100.00;101944.94;2071108;28;20280;-62
2023/09/27 00:29:06;;;;;;;3.57;1.50;;;;;;;18.57;100.00;101975.34;2070741;28;20210;-62
2023/09/27 00:30:09;;;;;;;4.53;1.73;;;;;;;18.55;100.00;101975.00;2071319;28;20263;-63
2023/09/27 00:31:09;;;;;;;2.87;1.70;;;;;;;18.31;100.00;101940.91;2070341;28;20219;-62
2023/09/27 00:32:10;;;;;;;4.77;1.80;;;;;;;18.39;100.00;101949.91;2070172;28;20874;-62
2023/09/27 00:33:10;;;;;;;2.77;1.50;;;;;;;18.49;100.00;101972.00;2071333;28;20192;-62
2023/09/27 00:34:11;;;;;;;2.43;1.60;;;;;;;18.48;100.00;101972.44;2070819;28;20807;-62
2023/09/27 00:35:18;;;;;;;3.67;1.90;;;;;;;18.45;100.00;101965.72;2071151;28;20277;-62
2023/09/27 00:36:19;;;;;;;6.20;1.47;;;;;;;18.43;100.00;101968.19;2070712;28;20188;-62
2023/09/27 00:37:19;;;;;;;4.27;1.90;;;;;;;18.41;100.00;101972.69;2070898;28;20539;-62
2023/09/27 00:38:20;;;;;;;2.37;1.30;;;;;;;18.38;100.00;101970.78;2071040;28;20735;-62
2023/09/27 00:39:20;;;;;;;3.83;1.93;;;;;;;18.33;100.00;101954.53;2070811;28;20561;-62
2023/09/27 00:40:23;;;;;;;4.43;1.70;;;;;;;18.23;100.00;101951.59;2070193;28;20209;-62
2023/09/27 00:41:23;;;;;;;10.67;1.70;;;;;;;18.33;100.00;101969.34;2070703;28;20394;-62
2023/09/27 00:42:24;;;;;;;4.03;1.53;;;;;;;18.29;100.00;101966.63;2065273;28;20436;-62
2023/09/27 00:43:28;;;;;;;6.10;2.23;;;;;;;17.92;100.00;101911.38;2071056;28;20296;-62
2023/09/27 00:44:29;;;;;;;2.37;1.50;;;;;;;18.14;100.00;101948.69;2070385;28;20576;-62
2023/09/27 00:45:30;;;;;;;2.33;1.60;;;;;;;18.23;100.00;101968.44;2071200;28;20492;-62
2023/09/27 00:46:31;;;;;;;3.23;1.70;;;;;;;18.17;100.00;101974.31;2070428;28;20189;-62
2023/09/27 00:47:33;;;;;;;3.23;1.67;;;;;;;18.09;100.00;101970.94;2070851;28;20520;-62
2023/09/27 00:48:35;;;;;;;3.53;1.93;;;;;;;17.97;100.00;101966.13;2070704;28;20452;-62
2023/09/27 00:49:38;;;;;;;3.60;1.90;;;;;;;17.61;100.00;101914.47;2070754;28;20466;-62
2023/09/27 00:50:39;;;;;;;4.03;1.70;;;;;;;17.92;100.00;101968.72;2071009;28;20412;-62
2023/09/27 00:51:39;;;;;;;3.33;2.00;;;;;;;17.91;100.00;101969.97;2070666;28;20486;-62
2023/09/27 00:52:41;;;;;;;3.33;1.80;;;;;;;17.87;100.00;101969.28;2070705;28;20185;-62
2023/09/27 00:53:45;;;;;;;3.80;1.60;;;;;;;17.83;100.00;101975.78;2071388;28;20600;-62
2023/09/27 00:54:46;;;;;;;3.87;2.00;;;;;;;17.82;100.00;101973.47;2070417;28;20455;-62
2023/09/27 00:55:47;;;;;;;2.10;1.50;;;;;;;17.81;100.00;101980.28;2068539;28;20452;-62
2023/09/27 00:56:47;;;;;;;3.20;1.57;;;;;;;17.37;100.00;101911.97;2067919;28;20197;-62
2023/09/27 00:57:50;;;;;;;4.13;1.53;;;;;;;17.77;100.00;101976.81;2070710;28;20568;-62
2023/09/27 00:58:52;;;;;;;2.10;1.40;;;;;;;17.37;100.00;101916.81;2070907;28;20588;-62
2023/09/27 00:59:53;;;;;;;2.37;1.50;;;;;;;17.75;100.00;101986.91;2071321;28;20460;-62
2023/09/27 01:00:54;;;;;;;3.47;1.97;;;;;;;17.73;100.00;101992.16;2070429;28;20987;-63
2023/09/27 01:01:55;;;;;;;4.27;1.70;;;;;;;17.49;100.00;101934.88;2070467;28;21011;-62
2023/09/27 01:02:56;;;;;;;10.00;1.80;;;;;;;17.71;100.00;101975.78;2071451;28;20658;-62
2023/09/27 01:03:58;;;;;;;2.67;1.47;;;;;;;17.67;100.00;101977.94;2070389;28;20794;-61
2023/09/27 01:04:58;;;;;;;2.83;1.77;;;;;;;17.62;100.00;101974.91;2071029;28;20830;-62
2023/09/27 01:05:59;;;;;;;4.33;2.30;;;;;;;17.55;100.00;101983.53;2069263;28;20486;-62
2023/09/27 01:06:59;;;;;;;3.13;1.80;;;;;;;17.51;100.00;101969.63;2066034;28;20679;-62
2023/09/27 01:08:00;;;;;;;3.33;1.63;;;;;;;17.48;100.00;101981.75;2069557;28;20267;-62
2023/09/27 01:09:01;;;;;;;2.40;1.80;;;;;;;17.45;100.00;101982.63;2069177;28;20656;-62
2023/09/27 01:10:01;;;;;;;3.67;1.80;;;;;;;17.41;100.00;101981.16;2070773;28;20568;-62
2023/09/27 01:11:04;;;;;;;4.27;2.47;;;;;;;17.37;100.00;101982.03;2071062;28;20259;-62
2023/09/27 01:12:05;;;;;;;3.37;1.80;;;;;;;17.34;100.00;101982.94;2071935;28;20286;-62
2023/09/27 01:13:07;;;;;;;5.07;2.60;;;;;;;17.30;100.00;101984.25;2069569;28;20451;-62
2023/09/27 01:14:07;;;;;;;3.87;2.03;;;;;;;17.32;100.00;101985.38;2069216;28;20543;-62
2023/09/27 01:15:08;;;;;;;3.30;1.50;;;;;;;17.31;100.00;101985.84;2070493;28;20477;-62
2023/09/27 01:16:09;;;;;;;2.90;1.60;;;;;;;17.28;100.00;101984.72;2070368;28;20243;-62
2023/09/27 01:17:10;;;;;;;2.40;1.50;;;;;;;17.28;100.00;101981.13;2069600;28;20216;-62
2023/09/27 01:18:10;;;;;;;4.27;1.80;;;;;;;17.26;100.00;101980.78;2070508;28;20271;-62
2023/09/27 01:19:12;;;;;;;2.80;1.90;;;;;;;17.22;100.00;101978.06;2070328;28;20917;-62
2023/09/27 01:20:13;;;;;;;2.77;1.77;;;;;;;17.20;100.00;101983.34;2065097;28;20178;-62
2023/09/27 01:21:18;;;;;;;3.80;1.60;;;;;;;17.08;100.00;101967.31;2069758;28;20458;-62
2023/09/27 01:22:19;;;;;;;4.80;1.87;;;;;;;17.18;100.00;101990.63;2070293;28;20197;-62
2023/09/27 01:23:20;;;;;;;2.83;1.60;;;;;;;16.78;100.00;101920.19;2070684;28;20549;-62
2023/09/27 01:24:21;;;;;;;2.47;1.40;;;;;;;17.19;100.00;101978.19;2070511;28;20204;-62
2023/09/27 01:25:24;;;;;;;5.90;2.10;;;;;;;17.19;100.00;101972.56;2070550;28;20199;-62
2023/09/27 01:26:26;;;;;;;3.10;1.60;;;;;;;17.18;100.00;101985.03;2070068;28;21102;-62
2023/09/27 01:27:29;;;;;;;2.67;1.57;;;;;;;17.18;100.00;101985.03;2070027;28;20425;-62
2023/09/27 01:28:29;;;;;;;2.60;1.80;;;;;;;17.18;100.00;101979.41;2070396;28;20903;-62
2023/09/27 01:29:30;;;;;;;5.60;1.70;;;;;;;17.17;100.00;101977.84;2070458;28;20889;-62
2023/09/27 01:30:33;;;;;;;3.50;2.03;;;;;;;17.16;100.00;101979.09;2070609;28;20241;-62
2023/09/27 01:31:35;;;;;;;4.03;1.90;;;;;;;16.96;100.00;101950.47;2069724;28;20236;-62
2023/09/27 01:32:36;;;;;;;3.37;1.77;;;;;;;17.16;100.00;101984.69;2068713;28;20456;-62
2023/09/27 01:33:36;;;;;;;2.83;1.60;;;;;;;17.13;100.00;101985.56;2070340;28;20482;-62
2023/09/27 01:34:36;;;;;;;4.13;1.97;;;;;;;17.14;100.00;101975.94;2069539;28;20697;-62
2023/09/27 01:35:42;;;;;;;7.47;2.03;;;;;;;17.14;100.00;101982.31;2070421;28;20580;-63
2023/09/27 01:36:43;;;;;;;4.47;1.83;;;;;;;17.13;100.00;101972.34;2066565;28;20236;-62
2023/09/27 01:37:43;;;;;;;4.77;1.97;;;;;;;17.09;100.00;101977.28;2070124;28;20421;-62
2023/09/27 01:38:44;;;;;;;5.20;2.00;;;;;;;16.49;100.00;101894.22;2070363;28;20190;-62
2023/09/27 01:39:45;;;;;;;2.57;1.53;;;;;;;17.00;100.00;101965.94;2070668;28;20180;-63
2023/09/27 01:40:45;;;;;;;3.67;2.17;;;;;;;16.98;100.00;101978.81;2070408;28;20189;-63
2023/09/27 01:41:46;;;;;;;2.57;1.67;;;;;;;16.95;100.00;101979.72;2065099;28;20990;-62
2023/09/27 01:42:46;;;;;;;3.47;2.00;;;;;;;16.90;100.00;101972.63;2069701;28;20207;-62
2023/09/27 01:43:47;;;;;;;3.23;1.80;;;;;;;16.84;100.00;101977.19;2069144;28;20651;-62
2023/09/27 01:44:47;;;;;;;2.93;1.70;;;;;;;16.73;100.00;101976.72;2070225;28;20286;-62
2023/09/27 01:45:48;;;;;;;2.77;1.70;;;;;;;16.73;100.00;101985.09;2069681;28;20182;-62
2023/09/27 01:46:49;;;;;;;2.90;1.90;;;;;;;16.73;100.00;101980.75;2068787;28;20199;-62
2023/09/27 01:47:49;;;;;;;3.97;1.73;;;;;;;16.68;100.00;101979.25;2070900;28;20750;-62
2023/09/27 01:48:50;;;;;;;3.07;2.10;;;;;;;16.67;100.00;101975.69;2069687;28;20511;-63
2023/09/27 01:49:51;;;;;;;3.53;2.20;;;;;;;16.66;100.00;101981.72;2069855;28;20208;-63
2023/09/27 01:50:51;;;;;;;5.97;1.93;;;;;;;16.63;100.00;101977.00;2070354;28;21020;-63
2023/09/27 01:51:52;;;;;;;4.97;1.80;;;;;;;16.53;100.00;101987.25;2070086;28;20199;-63
2023/09/27 01:52:56;;;;;;;3.67;1.90;;;;;;;16.48;100.00;101982.19;2070056;28;20222;-62
2023/09/27 01:53:57;;;;;;;3.27;2.03;;;;;;;16.07;100.00;101911.31;2069496;28;20186;-63
2023/09/27 01:54:57;;;;;;;4.13;2.00;;;;;;;16.47;100.00;101973.47;2069628;28;20436;-63
2023/09/27 01:55:58;;;;;;;3.33;2.00;;;;;;;15.88;100.00;101890.66;2066860;28;20572;-63
2023/09/27 01:56:58;;;;;;;3.60;1.80;;;;;;;16.49;100.00;101983.00;2069257;28;20493;-64
2023/09/27 01:58:00;;;;;;;3.13;1.90;;;;;;;16.45;100.00;101982.28;2070260;28;20661;-64
2023/09/27 01:59:01;;;;;;;2.17;1.50;;;;;;;16.47;100.00;101976.25;2070202;28;20531;-63
2023/09/27 02:00:03;;;;;;;3.30;1.83;;;;;;;16.48;100.00;101973.00;2069662;28;20458;-63
2023/09/27 02:01:04;;;;;;;4.47;2.07;;;;;;;16.38;100.00;101962.84;2069874;28;20191;-63
2023/09/27 02:02:04;;;;;;;6.90;2.17;;;;;;;16.48;100.00;101973.81;2070024;28;20508;-63
2023/09/27 02:03:05;;;;;;;4.23;2.00;;;;;;;16.49;100.00;101969.78;2069867;28;20180;-63
2023/09/27 02:04:06;;;;;;;2.77;1.60;;;;;;;16.21;100.00;101931.34;2069421;28;20190;-63
2023/09/27 02:05:08;;;;;;;4.47;2.00;;;;;;;16.36;100.00;101966.09;2062465;28;20206;-63
2023/09/27 02:06:08;;;;;;;2.57;1.37;;;;;;;16.48;100.00;101975.03;2069103;28;20458;-63
2023/09/27 02:07:09;;;;;;;4.80;1.50;;;;;;;16.46;100.00;101967.06;2077074;28;20449;-63
2023/09/27 02:08:11;;;;;;;4.40;1.90;;;;;;;16.45;100.00;101971.09;2077448;28;20196;-64
2023/09/27 02:09:11;;;;;;;14.87;1.90;;;;;;;16.44;100.00;101970.31;2066874;28;20200;-63
2023/09/27 02:10:12;;;;;;;5.23;2.33;;;;;;;16.08;100.00;101918.50;2069932;28;20484;-62
2023/09/27 02:11:14;;;;;;;7.97;2.00;;;;;;;16.17;100.00;101941.03;2071846;28;20231;-63
2023/09/27 02:12:15;;;;;;;3.23;1.90;;;;;;;16.31;100.00;101971.44;2069771;28;20193;-63
2023/09/27 02:13:15;;;;;;;4.93;1.90;;;;;;;16.29;100.00;101976.69;2070154;28;20451;-63
2023/09/27 02:14:16;;;;;;;3.17;2.00;;;;;;;16.19;100.00;101961.75;2069513;28;20752;-63
2023/09/27 02:15:17;;;;;;;3.63;2.07;;;;;;;16.27;100.00;101973.53;2069748;28;20206;-63
2023/09/27 02:16:17;;;;;;;1.80;1.40;;;;;;;16.25;100.00;101976.75;2070899;28;20186;-63
2023/09/27 02:17:18;;;;;;;4.07;1.90;;;;;;;16.23;100.00;101973.63;2070189;28;20444;-62
2023/09/27 02:18:18;;;;;;;4.20;2.00;;;;;;;16.24;100.00;101968.84;2070340;28;20266;-63
2023/09/27 02:19:19;;;;;;;2.50;1.80;;;;;;;16.24;100.00;101975.19;2070300;28;20213;-63
2023/09/27 02:20:20;;;;;;;3.00;1.87;;;;;;;16.04;100.00;101957.72;2064820;28;20512;-63
2023/09/27 02:21:21;;;;;;;3.10;1.40;;;;;;;16.14;100.00;101975.47;2070301;28;20239;-63
2023/09/27 02:22:22;;;;;;;1.90;1.53;;;;;;;16.14;100.00;101987.44;2070460;28;20654;-63
2023/09/27 02:23:23;;;;;;;3.50;2.13;;;;;;;16.11;100.00;101977.16;2070249;28;20194;-63
2023/09/27 02:24:23;;;;;;;5.37;1.87;;;;;;;16.03;100.00;101981.31;2069229;28;20451;-64
2023/09/27 02:25:25;;;;;;;4.27;1.97;;;;;;;16.04;100.00;101977.31;2069997;28;20206;-63
2023/09/27 02:26:25;;;;;;;5.67;2.27;;;;;;;16.00;100.00;101979.44;2069983;28;20200;-63
2023/09/27 02:27:26;;;;;;;3.93;1.67;;;;;;;15.84;100.00;101973.03;2070334;28;20455;-63
2023/09/27 02:28:26;;;;;;;2.73;1.60;;;;;;;15.88;100.00;101982.91;2069964;28;20192;-62
2023/09/27 02:29:27;;;;;;;6.57;1.93;;;;;;;15.90;100.00;101986.06;2069349;28;20186;-63
2023/09/27 02:30:28;;;;;;;3.87;2.13;;;;;;;15.89;100.00;101994.88;2070582;28;20217;-63
2023/09/27 02:31:29;;;;;;;3.80;1.90;;;;;;;15.45;100.00;101928.44;2070155;28;20213;-63
2023/09/27 02:32:29;;;;;;;2.37;1.67;;;;;;;15.88;100.00;101987.72;2068441;28;20200;-63
2023/09/27 02:33:30;;;;;;;4.00;2.00;;;;;;;15.74;100.00;101971.28;2070374;28;20471;-63
2023/09/27 02:34:30;;;;;;;2.93;1.77;;;;;;;15.62;100.00;101955.97;2069794;28;20205;-63
2023/09/27 02:35:31;;;;;;;4.40;1.80;;;;;;;15.80;100.00;101992.69;2070896;28;20230;-63
2023/09/27 02:36:31;;;;;;;3.23;1.90;;;;;;;15.82;100.00;101990.25;2070154;28;20337;-63
2023/09/27 02:37:32;;;;;;;1.90;1.50;;;;;;;15.82;100.00;101992.22;2068994;28;20670;-63
2023/09/27 02:38:35;;;;;;;2.83;1.93;;;;;;;15.80;100.00;101989.91;2062399;28;20196;-63
2023/09/27 02:39:36;;;;;;;4.67;2.20;;;;;;;15.80;100.00;101989.91;2070027;28;20292;-63
2023/09/27 02:40:36;;;;;;;2.53;1.73;;;;;;;15.38;100.00;101909.84;2070149;28;20969;-64
2023/09/27 02:41:37;;;;;;;2.60;1.70;;;;;;;15.84;100.00;102004.56;2070271;28;20625;-64
2023/09/27 02:42:46;;;;;;;3.57;1.80;;;;;;;15.85;100.00;101989.38;2065908;28;20348;-63
2023/09/27 02:43:47;;;;;;;4.30;1.83;;;;;;;15.85;100.00;101988.59;2067300;28;20225;-63
2023/09/27 02:44:47;;;;;;;3.67;1.80;;;;;;;15.34;100.00;101917.53;2065179;28;20474;-63
2023/09/27 02:45:49;;;;;;;3.10;1.87;;;;;;;15.85;100.00;101989.38;2069467;28;20178;-64
2023/09/27 02:46:55;;;;;;;4.53;1.93;;;;;;;15.87;100.00;101994.50;2069608;28;20179;-63
2023/09/27 02:47:56;;;;;;;5.70;2.20;;;;;;;15.86;100.00;101992.94;2069749;28;20428;-63
2023/09/27 02:48:56;;;;;;;5.23;1.93;;;;;;;15.86;100.00;101996.53;2070639;28;20437;-63
2023/09/27 02:49:57;;;;;;;3.50;2.00;;;;;;;15.87;100.00;101986.91;2065074;28;20737;-63
2023/09/27 02:50:57;;;;;;;5.07;1.87;;;;;;;15.89;100.00;101990.06;2068831;28;20210;-63
2023/09/27 02:51:58;;;;;;;4.20;2.10;;;;;;;15.90;100.00;101990.84;2069965;28;20567;-63
2023/09/27 02:52:58;;;;;;;3.67;1.83;;;;;;;15.59;100.00;101947.69;2070340;28;20184;-63
2023/09/27 02:53:59;;;;;;;2.77;1.90;;;;;;;15.91;100.00;101998.81;2069805;28;20197;-63
2023/09/27 02:54:59;;;;;;;4.57;1.47;;;;;;;15.90;100.00;102000.03;2069777;28;20193;-63
2023/09/27 02:56:00;;;;;;;5.37;2.10;;;;;;;15.92;100.00;102000.38;2067056;28;20190;-63
2023/09/27 02:57:01;;;;;;;5.40;1.77;;;;;;;15.85;100.00;101988.59;2070210;28;20557;-63
2023/09/27 02:58:01;;;;;;;8.17;2.67;;;;;;;15.85;100.00;102002.56;2070359;28;20201;-63
2023/09/27 02:59:02;;;;;;;5.23;2.40;;;;;;;15.69;100.00;101980.97;2070487;28;20202;-63
2023/09/27 03:00:04;;;;;;;3.30;1.77;;;;;;;15.85;100.00;102002.56;2069571;28;20201;-63
2023/09/27 03:01:05;;;;;;;3.03;1.90;;;;;;;15.88;100.00;102005.25;2068381;28;20205;-63
2023/09/27 03:02:05;;;;;;;5.73;2.00;;;;;;;15.88;100.00;102004.50;2070024;28;20553;-63
2023/09/27 03:03:07;;;;;;;4.97;1.47;;;;;;;15.88;100.00;102004.50;2070170;28;20630;-63
2023/09/27 03:04:09;;;;;;;3.90;1.80;;;;;;;15.87;100.00;102000.91;2069517;28;20678;-63
2023/09/27 03:05:11;;;;;;;2.60;1.60;;;;;;;15.51;100.00;101949.84;2064969;28;20804;-63
2023/09/27 03:06:13;;;;;;;4.57;1.83;;;;;;;15.60;100.00;101969.59;2070457;28;20861;-63
2023/09/27 03:07:16;;;;;;;3.07;1.97;;;;;;;15.86;100.00;102007.72;2069722;28;20551;-63
2023/09/27 03:08:16;;;;;;;4.17;2.33;;;;;;;15.79;100.00;101993.13;2064179;28;20449;-63
2023/09/27 03:09:17;;;;;;;4.40;2.07;;;;;;;15.85;100.00;102010.94;2067671;28;20451;-63
2023/09/27 03:10:18;;;;;;;8.03;2.03;;;;;;;15.70;100.00;102001.31;2070389;28;20590;-63
2023/09/27 03:11:18;;;;;;;2.93;1.83;;;;;;;15.78;100.00;102003.50;2069930;28;20574;-63
2023/09/27 03:12:19;;;;;;;3.57;1.80;;;;;;;15.55;100.00;101972.13;2069738;28;20503;-63
2023/09/27 03:13:20;;;;;;;5.40;2.40;;;;;;;15.80;100.00;102015.06;2069800;28;20212;-63
2023/09/27 03:14:21;;;;;;;6.00;2.00;;;;;;;15.80;100.00;102015.06;2069682;28;20190;-63
2023/09/27 03:15:21;;;;;;;3.57;1.87;;;;;;;15.78;100.00;102019.50;2069690;28;20445;-63
2023/09/27 03:16:22;;;;;;;2.37;1.97;;;;;;;15.80;100.00;102020.66;2069569;28;20208;-62
2023/09/27 03:17:23;;;;;;;3.53;1.80;;;;;;;15.79;100.00;102012.69;2069340;28;20635;-63
2023/09/27 03:18:23;;;;;;;3.47;2.17;;;;;;;15.80;100.00;102015.06;2069314;28;20448;-63
2023/09/27 03:19:24;;;;;;;5.33;2.10;;;;;;;15.81;100.00;102013.03;2069747;28;20638;-63
2023/09/27 03:20:24;;;;;;;3.23;1.90;;;;;;;15.81;100.00;102010.22;2065398;28;20424;-63
2023/09/27 03:21:26;;;;;;;2.93;1.83;;;;;;;15.46;100.00;101958.75;2077423;28;20194;-62
2023/09/27 03:22:27;;;;;;;3.10;1.73;;;;;;;15.82;100.00;102011.81;2076871;28;20680;-63
2023/09/27 03:23:28;;;;;;;4.93;2.10;;;;;;;15.82;100.00;102012.59;2062988;28;20890;-63
2023/09/27 03:24:29;;;;;;;3.13;1.90;;;;;;;15.83;100.00;102007.81;2068346;28;20204;-62
2023/09/27 03:25:30;;;;;;;3.97;1.73;;;;;;;15.45;100.00;101948.81;2069650;28;20968;-62
2023/09/27 03:26:31;;;;;;;2.53;1.80;;;;;;;15.82;100.00;102015.41;2069667;28;20531;-63
2023/09/27 03:27:31;;;;;;;2.73;1.87;;;;;;;15.70;100.00;101996.53;2069048;28;20464;-62
2023/09/27 03:28:32;;;;;;;4.97;1.80;;;;;;;15.76;100.00;102013.53;2069455;28;20229;-63
2023/09/27 03:29:32;;;;;;;2.00;1.50;;;;;;;15.80;100.00;102012.25;2069621;28;20174;-63
2023/09/27 03:30:33;;;;;;;2.57;1.83;;;;;;;15.80;100.00;102015.06;2069393;28;20197;-62
2023/09/27 03:31:33;;;;;;;5.17;2.20;;;;;;;15.81;100.00;102015.81;2070130;28;20759;-62
2023/09/27 03:32:34;;;;;;;2.60;1.67;;;;;;;15.79;100.00;102010.66;2069266;28;20197;-63
2023/09/27 03:33:34;;;;;;;5.37;1.83;;;;;;;15.80;100.00;102022.66;2069422;28;20240;-63
2023/09/27 03:34:35;;;;;;;3.50;2.00;;;;;;;15.79;100.00;102016.25;2069352;28;20193;-63
2023/09/27 03:35:36;;;;;;;3.57;1.90;;;;;;;15.80;100.00;102015.06;2069143;28;20740;-62
2023/09/27 03:36:36;;;;;;;4.17;2.30;;;;;;;15.82;100.00;102017.41;2068927;28;20510;-63
2023/09/27 03:37:39;;;;;;;7.77;1.90;;;;;;;15.82;100.00;102022.97;2069748;28;20254;-63
2023/09/27 03:38:40;;;;;;;4.10;1.90;;;;;;;15.82;100.00;102014.59;2069650;28;20420;-63
2023/09/27 03:39:41;;;;;;;3.50;1.90;;;;;;;15.13;100.00;101909.59;2070291;28;20459;-63
2023/09/27 03:40:41;;;;;;;4.90;2.00;;;;;;;15.42;100.00;101969.22;2069301;28;20455;-63
2023/09/27 03:41:42;;;;;;;3.57;1.90;;;;;;;15.75;100.00;102029.56;2069121;28;20246;-63
2023/09/27 03:42:44;;;;;;;3.53;1.83;;;;;;;15.72;100.00;102022.03;2066360;28;20720;-62
2023/09/27 03:43:44;;;;;;;9.33;2.40;;;;;;;15.71;100.00;102025.25;2067835;28;20196;-63
2023/09/27 03:44:45;;;;;;;3.33;1.83;;;;;;;15.23;100.00;101969.22;2064996;28;20452;-63
2023/09/27 03:45:45;;;;;;;3.33;1.83;;;;;;;15.63;100.00;102024.59;2070388;28;20255;-63
2023/09/27 03:46:46;;;;;;;3.53;1.90;;;;;;;15.61;100.00;102024.28;2069100;28;20216;-64
2023/09/27 03:47:47;;;;;;;5.80;2.13;;;;;;;15.59;100.00;102031.50;2069850;28;20183;-63
2023/09/27 03:48:47;;;;;;;4.17;2.10;;;;;;;15.53;100.00;102025.63;2070056;28;20236;-63
2023/09/27 03:49:48;;;;;;;8.17;2.20;;;;;;;15.54;100.00;102021.66;2069280;28;20205;-63
2023/09/27 03:50:48;;;;;;;2.87;1.80;;;;;;;15.54;100.00;102027.22;2069870;28;20189;-63
2023/09/27 03:51:49;;;;;;;3.63;1.97;;;;;;;15.55;100.00;102025.22;2069619;28;20687;-64
2023/09/27 03:52:55;;;;;;;4.57;1.90;;;;;;;16.39;100.00;102026.03;2069435;28;20202;-58
2023/09/27 03:53:56;;;;;;;2.20;1.63;;;;;;;17.63;100.00;102043.75;2063737;28;20295;-58
2023/09/27 03:54:57;;;;;;;2.40;1.60;;;;;;;18.23;100.00;102021.75;2062111;28;20509;-58
2023/09/27 03:55:57;;;;;;;3.10;2.23;;;;;;;18.99;100.00;102058.84;2066658;28;20435;-59
2023/09/27 03:56:58;;;;;;;3.13;2.00;;;;;;;19.29;100.00;102063.78;2070282;28;20215;-57
2023/09/27 03:57:59;;;;;;;2.63;1.67;;;;;;;19.72;100.00;102055.31;2070506;28;20220;-59
2023/09/27 03:58:59;;;;;;;4.00;2.03;;;;;;;19.98;100.00;102051.06;2070176;28;20436;-58
2023/09/27 04:00:00;;;;;;;2.63;1.73;;;;;;;20.23;100.00;102047.25;2070307;28;20206;-58
2023/09/27 04:01:00;;;;;;;3.97;1.87;;;;;;;20.36;100.00;102039.50;2070910;28;20202;-58
2023/09/27 04:02:01;;;;;;;5.00;1.70;;;;;;;19.87;100.00;101963.50;2067818;28;20734;-58
2023/09/27 04:03:01;;;;;;;4.77;1.90;;;;;;;20.25;100.00;102039.13;2070400;28;20193;-58
2023/09/27 04:04:04;;;;;;;3.73;2.30;;;;;;;20.16;100.00;102044.75;2067577;28;20202;-58
2023/09/27 04:05:05;;;;;;;4.20;1.70;;;;;;;20.29;100.00;102045.41;2062879;28;20186;-58
2023/09/27 04:06:05;;;;;;;2.63;1.80;;;;;;;20.32;100.00;102047.31;2062669;28;20426;-58
2023/09/27 04:07:06;;;;;;;2.57;1.73;;;;;;;20.29;100.00;102040.56;2061493;28;20193;-58
2023/09/27 04:08:06;;;;;;;3.37;1.90;;;;;;;20.12;100.00;102010.34;2066486;28;20647;-59
2023/09/27 04:09:08;;;;;;;3.13;1.80;;;;;;;20.53;100.00;102047.16;2070822;28;20190;-58
2023/09/27 04:10:09;;;;;;;2.50;1.70;;;;;;;20.54;100.00;102031.06;2067047;28;20217;-58
2023/09/27 04:11:10;;;;;;;2.57;1.67;;;;;;;20.65;100.00;102039.84;2062710;28;20479;-59
2023/09/27 04:12:11;;;;;;;3.80;1.60;;;;;;;20.72;100.00;102040.31;2061835;28;20580;-58
2023/09/27 04:13:12;;;;;;;3.33;1.97;;;;;;;20.82;100.00;102041.13;2066128;28;20182;-59
2023/09/27 04:14:12;;;;;;;2.87;1.70;;;;;;;20.90;100.00;102043.19;2061927;28;20501;-58
2023/09/27 04:15:13;;;;;;;1.97;1.47;;;;;;;20.98;100.00;102038.00;2062019;28;20218;-59
2023/09/27 04:16:14;;;;;;;3.03;1.43;;;;;;;21.21;100.00;102040.97;2062155;28;20198;-58
2023/09/27 04:17:14;;;;;;;2.80;1.67;;;;;;;21.42;100.00;102017.44;2060996;28;20600;-58
2023/09/27 04:18:15;;;;;;;2.77;1.80;;;;;;;21.74;100.00;102036.47;2063291;28;20278;-59
2023/09/27 04:19:15;;;;;;;3.77;1.77;;;;;;;21.76;100.00;102038.81;2064579;28;20307;-58
2023/09/27 04:20:18;;;;;;;6.00;1.80;;;;;;;21.80;100.00;102030.97;2067165;28;20194;-59
2023/09/27 04:21:19;;;;;;;3.93;1.50;;;;;;;21.93;100.00;102031.53;2069795;28;20201;-58
2023/09/27 04:22:20;;;;;;;4.03;1.73;;;;;;;21.91;100.00;102011.47;2061867;28;20214;-56
2023/09/27 04:23:20;;;;;;;3.00;1.40;;;;;;;22.07;100.00;102025.19;2063193;28;20190;-61
2023/09/27 04:24:21;;;;;;;3.80;1.87;;;;;;;22.17;100.00;102027.50;2061017;28;20270;-57
2023/09/27 04:25:22;;;;;;;2.87;1.70;;;;;;;22.20;100.00;102022.91;2066665;28;20206;-57
2023/09/27 04:26:23;;;;;;;4.33;1.80;;;;;;;22.26;100.00;102024.63;2065127;28;20206;-57
2023/09/27 04:27:24;;;;;;;2.43;1.40;;;;;;;22.30;100.00;102030.09;2062359;28;20198;-59
2023/09/27 04:28:25;;;;;;;5.40;1.60;;;;;;;22.30;100.00;102030.88;2066353;28;20244;-58
2023/09/27 04:29:26;;;;;;;5.17;1.60;;;;;;;22.09;100.00;101991.63;2062547;28;20634;-58
2023/09/27 04:30:26;;;;;;;6.77;1.93;;;;;;;22.26;100.00;102004.84;2061519;28;20267;-58
2023/09/27 04:31:27;;;;;;;2.50;1.60;;;;;;;22.44;100.00;102030.19;2062166;28;20469;-57
2023/09/27 04:32:28;;;;;;;3.90;1.50;;;;;;;22.44;100.00;102026.53;2067810;28;20587;-57
2023/09/27 04:33:28;;;;;;;3.57;1.73;;;;;;;22.45;100.00;102028.13;2061381;28;20193;-60
2023/09/27 04:34:29;;;;;;;4.17;2.10;;;;;;;22.41;100.00;102033.94;2061103;28;20573;-58
2023/09/27 04:35:29;;;;;;;5.37;1.83;;;;;;;22.41;100.00;102036.75;2062108;28;20194;-58
2023/09/27 04:36:29;;;;;;;3.70;2.47;;;;;;;21.35;100.00;101871.09;2066009;28;20198;-59
2023/09/27 04:37:30;;;;;;;4.73;2.30;;;;;;;22.31;100.00;102032.44;2062155;28;20445;-59
2023/09/27 04:38:30;;;;;;;3.37;1.70;;;;;;;22.10;100.00;102027.84;2061407;28;20186;-65
2023/09/27 04:39:31;;;;;;;5.10;2.80;;;;;;;21.75;100.00;102007.00;2061878;28;20190;-65
2023/09/27 04:40:32;;;;;;;9.00;3.57;;;;;;;21.72;100.00;102038.19;2066162;28;20220;-65